createdAt,value
2018-07-09T00:00:44.533Z,0.00
2018-07-09T00:01:44.584Z,0.00
2018-07-09T00:02:44.678Z,0.00
2018-07-09T00:03:44.684Z,0.00
2018-07-09T00:04:44.735Z,0.00
2018-07-09T00:05:44.783Z,0.00
2018-07-09T00:06:44.835Z,0.00
2018-07-09T00:07:44.917Z,0.00
2018-07-09T00:08:44.934Z,0.00
2018-07-09T00:09:44.986Z,0.00
2018-07-09T00:10:45.039Z,0.00
2018-07-09T00:11:45.084Z,0.00
2018-07-09T00:12:45.159Z,0.00
2018-07-09T00:13:45.207Z,0.00
2018-07-09T00:14:45.236Z,0.00
2018-07-09T00:15:45.287Z,0.00
2018-07-09T00:16:45.337Z,0.00
2018-07-09T00:17:45.387Z,0.00
2018-07-09T00:18:45.460Z,0.00
2018-07-09T00:19:45.487Z,0.00
2018-07-09T00:20:45.537Z,0.00
2018-07-09T00:21:45.588Z,0.00
2018-07-09T00:22:45.639Z,0.00
2018-07-09T00:23:45.734Z,0.00
2018-07-09T00:24:45.765Z,0.00
2018-07-09T00:25:45.794Z,0.00
2018-07-09T00:26:45.837Z,0.00
2018-07-09T00:27:45.888Z,0.00
2018-07-09T00:28:45.961Z,0.00
2018-07-09T00:29:45.985Z,0.00
2018-07-09T00:30:46.038Z,0.00
2018-07-09T00:31:46.087Z,0.00
2018-07-09T00:32:46.137Z,0.00
2018-07-09T00:33:46.212Z,0.00
2018-07-09T00:34:46.259Z,0.00
2018-07-09T00:35:46.285Z,0.00
2018-07-09T00:36:46.336Z,0.00
2018-07-09T00:37:46.388Z,0.00
2018-07-09T00:38:46.435Z,0.00
2018-07-09T00:39:46.516Z,0.00
2018-07-09T00:40:46.561Z,0.00
2018-07-09T00:41:46.588Z,0.00
2018-07-09T00:42:46.638Z,0.00
2018-07-09T00:43:46.685Z,0.00
2018-07-09T00:44:46.736Z,0.00
2018-07-09T00:45:46.810Z,0.00
2018-07-09T00:46:46.836Z,0.00
2018-07-09T00:47:46.884Z,0.00
2018-07-09T00:48:46.933Z,0.00
2018-07-09T00:49:46.985Z,0.00
2018-07-09T00:50:47.065Z,0.00
2018-07-09T00:51:47.084Z,0.00
2018-07-09T00:52:47.133Z,0.00
2018-07-09T00:53:47.184Z,0.00
2018-07-09T00:54:47.233Z,0.00
2018-07-09T00:55:47.309Z,0.00
2018-07-09T00:56:47.333Z,0.00
2018-07-09T00:57:47.382Z,0.00
2018-07-09T00:58:47.432Z,0.00
2018-07-09T00:59:47.481Z,0.00
2018-07-09T01:00:47.556Z,0.00
2018-07-09T01:01:47.582Z,0.00
2018-07-09T01:02:47.632Z,0.00
2018-07-09T01:03:47.682Z,0.00
2018-07-09T01:04:47.734Z,0.00
2018-07-09T01:05:47.826Z,0.00
2018-07-09T01:06:47.832Z,0.00
2018-07-09T01:07:47.880Z,0.00
2018-07-09T01:08:47.931Z,0.00
2018-07-09T01:09:47.984Z,0.00
2018-07-09T01:10:48.062Z,0.00
2018-07-09T01:11:48.078Z,0.00
2018-07-09T01:12:48.148Z,0.00
2018-07-09T01:13:48.181Z,0.00
2018-07-09T01:14:48.230Z,0.00
2018-07-09T01:15:48.302Z,0.00
2018-07-09T01:16:48.330Z,0.00
2018-07-09T01:17:48.378Z,0.00
2018-07-09T01:18:48.455Z,0.00
2018-07-09T01:19:48.478Z,0.00
2018-07-09T01:20:48.526Z,0.00
2018-07-09T01:21:48.578Z,0.00
2018-07-09T01:22:48.667Z,0.00
2018-07-09T01:23:48.676Z,0.00
2018-07-09T01:24:48.724Z,0.00
2018-07-09T01:25:48.776Z,0.00
2018-07-09T01:26:48.833Z,0.00
2018-07-09T01:27:48.906Z,0.00
2018-07-09T01:28:48.925Z,0.00
2018-07-09T01:29:48.974Z,0.00
2018-07-09T01:30:49.027Z,0.00
2018-07-09T01:31:49.075Z,0.00
2018-07-09T01:32:49.156Z,0.00
2018-07-09T01:33:49.174Z,0.00
2018-07-09T01:34:49.225Z,0.00
2018-07-09T01:35:49.273Z,0.00
2018-07-09T01:36:49.321Z,0.00
2018-07-09T01:37:49.410Z,0.00
2018-07-09T01:38:49.422Z,0.00
2018-07-09T01:39:49.469Z,0.00
2018-07-09T01:40:49.521Z,0.00
2018-07-09T01:41:49.569Z,0.00
2018-07-09T01:42:49.643Z,0.00
2018-07-09T01:43:49.669Z,0.00
2018-07-09T01:44:49.717Z,0.00
2018-07-09T01:45:49.767Z,0.00
2018-07-09T01:46:49.816Z,0.00
2018-07-09T01:47:49.891Z,0.00
2018-07-09T01:48:49.916Z,0.00
2018-07-09T01:49:49.966Z,0.00
2018-07-09T01:50:50.015Z,0.00
2018-07-09T01:51:50.063Z,0.00
2018-07-09T01:52:50.137Z,0.00
2018-07-09T01:53:50.201Z,0.00
2018-07-09T01:54:50.212Z,0.00
2018-07-09T01:55:50.261Z,0.00
2018-07-09T01:56:50.313Z,0.00
2018-07-09T01:57:50.362Z,0.00
2018-07-09T01:58:50.440Z,0.00
2018-07-09T01:59:50.462Z,0.00
2018-07-09T02:00:50.513Z,0.00
2018-07-09T02:01:50.569Z,0.00
2018-07-09T02:02:50.607Z,0.00
2018-07-09T02:03:50.688Z,0.00
2018-07-09T02:04:51.169Z,0.00
2018-07-09T02:05:50.763Z,0.00
2018-07-09T02:06:50.809Z,0.00
2018-07-09T02:07:50.853Z,0.00
2018-07-09T02:08:50.906Z,0.00
2018-07-09T02:09:51.000Z,0.00
2018-07-09T02:10:51.003Z,0.00
2018-07-09T02:11:51.054Z,0.00
2018-07-09T02:12:51.102Z,0.00
2018-07-09T02:13:51.151Z,0.00
2018-07-09T02:14:51.232Z,0.00
2018-07-09T02:15:51.252Z,0.00
2018-07-09T02:16:51.298Z,0.00
2018-07-09T02:17:51.351Z,0.00
2018-07-09T02:18:51.400Z,0.00
2018-07-09T02:19:51.490Z,0.00
2018-07-09T02:20:51.503Z,0.00
2018-07-09T02:21:51.546Z,0.00
2018-07-09T02:22:51.597Z,0.00
2018-07-09T02:23:51.643Z,0.00
2018-07-09T02:24:51.721Z,0.00
2018-07-09T02:25:51.744Z,0.00
2018-07-09T02:26:51.792Z,0.00
2018-07-09T02:27:51.841Z,0.00
2018-07-09T02:28:51.890Z,0.00
2018-07-09T02:29:51.966Z,0.00
2018-07-09T02:30:51.990Z,0.00
2018-07-09T02:31:52.073Z,0.00
2018-07-09T02:32:52.088Z,0.00
2018-07-09T02:33:52.138Z,0.00
2018-07-09T02:34:52.199Z,0.00
2018-07-09T02:35:52.260Z,0.00
2018-07-09T02:36:52.317Z,0.00
2018-07-09T02:37:52.337Z,0.00
2018-07-09T02:38:53.139Z,0.00
2018-07-09T02:39:52.433Z,0.00
2018-07-09T02:40:52.507Z,0.00
2018-07-09T02:41:52.538Z,0.00
2018-07-09T02:42:52.582Z,0.00
2018-07-09T02:43:52.630Z,0.00
2018-07-09T02:44:52.680Z,0.00
2018-07-09T02:45:52.753Z,0.00
2018-07-09T02:46:52.814Z,0.00
2018-07-09T02:47:52.829Z,0.00
2018-07-09T02:48:52.876Z,0.00
2018-07-09T02:49:52.929Z,0.00
2018-07-09T02:50:52.977Z,0.00
2018-07-09T02:51:53.065Z,0.00
2018-07-09T02:52:53.075Z,0.00
2018-07-09T02:53:53.133Z,0.00
2018-07-09T02:54:53.185Z,0.00
2018-07-09T02:55:53.222Z,4.00
2018-07-09T02:56:53.300Z,4.00
2018-07-09T02:57:53.322Z,4.00
2018-07-09T02:58:53.369Z,0.00
2018-07-09T02:59:53.418Z,4.00
2018-07-09T03:00:53.547Z,4.00
2018-07-09T03:01:53.549Z,4.00
2018-07-09T03:02:53.567Z,4.00
2018-07-09T03:03:53.615Z,8.00
2018-07-09T03:04:53.667Z,8.00
2018-07-09T03:05:53.730Z,8.00
2018-07-09T03:06:53.788Z,12.00
2018-07-09T03:07:53.814Z,12.00
2018-07-09T03:08:53.888Z,12.00
2018-07-09T03:09:53.912Z,16.00
2018-07-09T03:10:53.970Z,20.00
2018-07-09T03:11:54.027Z,20.00
2018-07-09T03:12:54.096Z,24.00
2018-07-09T03:13:54.110Z,28.00
2018-07-09T03:14:54.159Z,32.00
2018-07-09T03:15:54.206Z,36.00
2018-07-09T03:16:54.258Z,44.00
2018-07-09T03:17:54.333Z,48.00
2018-07-09T03:18:54.358Z,56.00
2018-07-09T03:19:54.403Z,64.00
2018-07-09T03:20:54.452Z,72.00
2018-07-09T03:21:54.507Z,80.00
2018-07-09T03:22:54.582Z,88.00
2018-07-09T03:23:54.599Z,96.00
2018-07-09T03:24:54.649Z,108.00
2018-07-09T03:25:54.699Z,124.00
2018-07-09T03:26:54.750Z,136.00
2018-07-09T03:27:54.827Z,152.00
2018-07-09T03:28:54.847Z,168.00
2018-07-09T03:29:54.903Z,188.00
2018-07-09T03:30:54.945Z,204.00
2018-07-09T03:31:54.994Z,224.00
2018-07-09T03:32:55.073Z,244.00
2018-07-09T03:33:55.092Z,268.00
2018-07-09T03:34:55.143Z,288.00
2018-07-09T03:35:55.191Z,312.00
2018-07-09T03:36:55.239Z,336.00
2018-07-09T03:37:55.325Z,364.00
2018-07-09T03:38:55.338Z,396.00
2018-07-09T03:39:55.388Z,428.00
2018-07-09T03:40:55.437Z,460.00
2018-07-09T03:41:55.486Z,496.00
2018-07-09T03:42:55.568Z,532.00
2018-07-09T03:43:55.584Z,564.00
2018-07-09T03:44:55.632Z,604.00
2018-07-09T03:45:55.681Z,644.00
2018-07-09T03:46:55.731Z,680.00
2018-07-09T03:47:55.805Z,720.00
2018-07-09T03:48:55.860Z,760.00
2018-07-09T03:49:55.878Z,804.00
2018-07-09T03:50:55.936Z,844.00
2018-07-09T03:51:55.975Z,884.00
2018-07-09T03:52:56.024Z,928.00
2018-07-09T03:53:56.115Z,976.00
2018-07-09T03:54:56.126Z,1016.00
2018-07-09T03:55:56.171Z,1064.00
2018-07-09T03:56:57.156Z,1104.00
2018-07-09T03:57:56.272Z,1152.00
2018-07-09T03:58:56.347Z,1196.00
2018-07-09T03:59:56.393Z,1244.00
2018-07-09T04:00:56.421Z,1292.00
2018-07-09T04:01:56.467Z,1336.00
2018-07-09T04:02:56.518Z,1388.00
2018-07-09T04:03:56.568Z,1432.00
2018-07-09T04:04:56.638Z,1480.00
2018-07-09T04:05:56.664Z,1528.00
2018-07-09T04:06:56.712Z,1576.00
2018-07-09T04:07:56.762Z,1624.00
2018-07-09T04:08:56.810Z,1672.00
2018-07-09T04:09:56.889Z,1716.00
2018-07-09T04:10:56.911Z,1764.00
2018-07-09T04:11:56.957Z,1812.00
2018-07-09T04:12:57.009Z,1860.00
2018-07-09T04:13:57.055Z,1908.00
2018-07-09T04:14:57.141Z,1956.00
2018-07-09T04:15:57.154Z,2004.00
2018-07-09T04:16:57.201Z,2052.00
2018-07-09T04:17:57.252Z,2100.00
2018-07-09T04:18:57.301Z,2144.00
2018-07-09T04:19:57.384Z,2192.00
2018-07-09T04:20:57.463Z,2240.00
2018-07-09T04:21:57.447Z,2284.00
2018-07-09T04:22:57.504Z,2332.00
2018-07-09T04:23:57.547Z,2376.00
2018-07-09T04:24:57.628Z,2420.00
2018-07-09T04:25:57.649Z,2468.00
2018-07-09T04:26:57.696Z,2512.00
2018-07-09T04:27:57.741Z,2556.00
2018-07-09T04:28:57.792Z,2604.00
2018-07-09T04:29:57.869Z,2652.00
2018-07-09T04:30:57.921Z,2692.00
2018-07-09T04:31:57.978Z,2736.00
2018-07-09T04:32:57.988Z,2784.00
2018-07-09T04:33:58.036Z,2832.00
2018-07-09T04:34:58.089Z,2876.00
2018-07-09T04:35:58.164Z,2916.00
2018-07-09T04:36:58.186Z,2956.00
2018-07-09T04:37:58.312Z,2996.00
2018-07-09T04:38:58.284Z,3040.00
2018-07-09T04:39:58.345Z,3080.00
2018-07-09T04:40:58.427Z,3120.00
2018-07-09T04:41:58.436Z,3160.00
2018-07-09T04:42:58.480Z,3204.00
2018-07-09T04:43:58.526Z,3252.00
2018-07-09T04:44:58.576Z,3296.00
2018-07-09T04:45:58.658Z,3340.00
2018-07-09T04:46:58.681Z,3384.00
2018-07-09T04:47:59.665Z,3428.00
2018-07-09T04:48:58.773Z,3468.00
2018-07-09T04:49:58.823Z,3512.00
2018-07-09T04:50:58.923Z,3552.00
2018-07-09T04:51:58.943Z,3596.00
2018-07-09T04:52:58.971Z,3636.00
2018-07-09T04:53:59.020Z,3680.00
2018-07-09T04:54:59.069Z,3724.00
2018-07-09T04:55:59.120Z,3772.00
2018-07-09T04:56:59.190Z,3816.00
2018-07-09T04:57:59.217Z,3868.00
2018-07-09T04:58:59.275Z,3912.00
2018-07-09T04:59:59.317Z,3956.00
2018-07-09T05:00:59.373Z,4008.00
2018-07-09T05:01:59.442Z,4052.00
2018-07-09T05:02:59.463Z,4088.00
2018-07-09T05:03:59.513Z,4128.00
2018-07-09T05:04:59.618Z,4168.00
2018-07-09T05:05:59.611Z,4208.00
2018-07-09T05:06:59.689Z,4244.00
2018-07-09T05:07:59.711Z,4276.00
2018-07-09T05:08:59.765Z,4316.00
2018-07-09T05:09:59.810Z,4348.00
2018-07-09T05:10:59.858Z,4384.00
2018-07-09T05:11:59.931Z,4420.00
2018-07-09T05:13:00.013Z,4452.00
2018-07-09T05:14:00.017Z,4488.00
2018-07-09T05:15:00.064Z,4520.00
2018-07-09T05:16:00.107Z,4560.00
2018-07-09T05:17:00.185Z,4592.00
2018-07-09T05:18:00.204Z,4632.00
2018-07-09T05:19:00.254Z,4668.00
2018-07-09T05:20:00.309Z,4700.00
2018-07-09T05:21:00.353Z,4732.00
2018-07-09T05:22:00.431Z,4764.00
2018-07-09T05:23:00.452Z,4796.00
2018-07-09T05:24:00.500Z,4832.00
2018-07-09T05:25:00.551Z,4868.00
2018-07-09T05:26:00.605Z,4908.00
2018-07-09T05:27:00.673Z,4948.00
2018-07-09T05:28:00.697Z,4980.00
2018-07-09T05:29:00.749Z,5016.00
2018-07-09T05:30:00.799Z,5052.00
2018-07-09T05:31:00.883Z,5084.00
2018-07-09T05:32:00.896Z,5124.00
2018-07-09T05:33:00.946Z,5152.00
2018-07-09T05:34:00.998Z,5180.00
2018-07-09T05:35:01.054Z,5212.00
2018-07-09T05:36:01.120Z,5244.00
2018-07-09T05:37:01.145Z,5280.00
2018-07-09T05:38:01.222Z,5320.00
2018-07-09T05:39:01.246Z,5348.00
2018-07-09T05:40:01.322Z,5380.00
2018-07-09T05:41:01.346Z,5416.00
2018-07-09T05:42:01.394Z,5444.00
2018-07-09T05:43:01.503Z,5480.00
2018-07-09T05:44:01.494Z,5508.00
2018-07-09T05:45:01.546Z,5548.00
2018-07-09T05:46:01.594Z,5588.00
2018-07-09T05:47:01.687Z,5636.00
2018-07-09T05:48:01.724Z,5680.00
2018-07-09T05:49:01.743Z,5728.00
2018-07-09T05:50:01.798Z,5776.00
2018-07-09T05:51:01.844Z,5832.00
2018-07-09T05:52:01.895Z,5876.00
2018-07-09T05:53:01.966Z,5916.00
2018-07-09T05:54:01.998Z,5948.00
2018-07-09T05:55:02.049Z,5996.00
2018-07-09T05:56:02.093Z,6032.00
2018-07-09T05:57:02.143Z,6072.00
2018-07-09T05:58:02.217Z,6112.00
2018-07-09T05:59:02.262Z,6148.00
2018-07-09T06:00:02.320Z,6192.00
2018-07-09T06:01:02.348Z,6236.00
2018-07-09T06:02:02.396Z,6272.00
2018-07-09T06:03:02.443Z,6316.00
2018-07-09T06:04:02.505Z,6360.00
2018-07-09T06:05:02.575Z,6400.00
2018-07-09T06:06:02.595Z,6440.00
2018-07-09T06:07:02.643Z,6472.00
2018-07-09T06:08:02.694Z,6512.00
2018-07-09T06:09:02.744Z,6552.00
2018-07-09T06:10:02.822Z,6604.00
2018-07-09T06:11:02.887Z,6644.00
2018-07-09T06:12:02.896Z,6680.00
2018-07-09T06:13:02.955Z,6716.00
2018-07-09T06:14:03.028Z,6744.00
2018-07-09T06:15:03.071Z,6772.00
2018-07-09T06:16:03.117Z,6808.00
2018-07-09T06:17:03.174Z,6840.00
2018-07-09T06:18:03.194Z,6876.00
2018-07-09T06:19:03.252Z,6924.00
2018-07-09T06:20:03.299Z,6968.00
2018-07-09T06:21:03.369Z,7008.00
2018-07-09T06:22:03.396Z,7052.00
2018-07-09T06:23:03.446Z,7096.00
2018-07-09T06:24:03.497Z,7128.00
2018-07-09T06:25:03.546Z,7168.00
2018-07-09T06:26:03.630Z,7208.00
2018-07-09T06:27:03.647Z,7248.00
2018-07-09T06:28:03.705Z,7300.00
2018-07-09T06:29:03.746Z,7360.00
2018-07-09T06:30:03.799Z,7396.00
2018-07-09T06:31:03.888Z,7440.00
2018-07-09T06:32:03.897Z,7488.00
2018-07-09T06:33:03.956Z,7532.00
2018-07-09T06:34:03.999Z,7572.00
2018-07-09T06:35:04.050Z,7600.00
2018-07-09T06:36:04.132Z,7628.00
2018-07-09T06:37:04.149Z,7660.00
2018-07-09T06:38:04.204Z,7692.00
2018-07-09T06:39:04.252Z,7724.00
2018-07-09T06:40:04.301Z,7748.00
2018-07-09T06:41:04.375Z,7824.00
2018-07-09T06:42:04.403Z,8040.00
2018-07-09T06:43:04.498Z,8168.00
2018-07-09T06:44:04.505Z,8168.00
2018-07-09T06:45:04.557Z,8168.00
2018-07-09T06:46:04.605Z,8156.00
2018-07-09T06:47:04.658Z,8152.00
2018-07-09T06:48:04.731Z,8152.00
2018-07-09T06:49:04.757Z,8152.00
2018-07-09T06:50:04.816Z,8160.00
2018-07-09T06:51:04.862Z,8172.00
2018-07-09T06:52:04.910Z,8188.00
2018-07-09T06:53:04.999Z,8196.00
2018-07-09T06:54:05.016Z,8216.00
2018-07-09T06:55:05.066Z,8232.00
2018-07-09T06:56:05.117Z,8264.00
2018-07-09T06:57:05.174Z,8304.00
2018-07-09T06:58:05.242Z,8336.00
2018-07-09T06:59:05.291Z,8352.00
2018-07-09T07:00:05.328Z,8368.00
2018-07-09T07:01:05.382Z,8400.00
2018-07-09T07:02:05.422Z,8436.00
2018-07-09T07:03:05.520Z,8476.00
2018-07-09T07:04:05.525Z,8520.00
2018-07-09T07:05:06.401Z,8568.00
2018-07-09T07:06:05.629Z,8624.00
2018-07-09T07:07:05.683Z,8676.00
2018-07-09T07:08:05.757Z,8724.00
2018-07-09T07:09:05.934Z,8792.00
2018-07-09T07:10:05.866Z,8860.00
2018-07-09T07:11:05.891Z,8920.00
2018-07-09T07:12:05.946Z,9000.00
2018-07-09T07:13:05.997Z,9088.00
2018-07-09T07:14:06.048Z,9168.00
2018-07-09T07:15:06.125Z,9264.00
2018-07-09T07:16:06.153Z,9420.00
2018-07-09T07:17:06.206Z,9608.00
2018-07-09T07:18:06.260Z,9852.00
2018-07-09T07:19:06.327Z,10292.00
2018-07-09T07:20:06.390Z,11688.00
2018-07-09T07:21:06.438Z,20288.00
2018-07-09T07:22:06.472Z,41120.00
2018-07-09T07:23:06.526Z,53120.00
2018-07-09T07:24:06.579Z,54624.00
2018-07-09T07:25:06.660Z,55424.00
2018-07-09T07:26:06.686Z,52992.00
2018-07-09T07:27:06.745Z,49344.00
2018-07-09T07:28:06.802Z,50304.00
2018-07-09T07:29:06.845Z,51520.00
2018-07-09T07:30:06.929Z,51776.00
2018-07-09T07:31:06.951Z,51936.00
2018-07-09T07:32:07.041Z,52192.00
2018-07-09T07:33:07.064Z,55808.00
2018-07-09T07:34:07.114Z,61696.00
2018-07-09T07:35:07.165Z,54240.00
2018-07-09T07:36:07.249Z,45504.00
2018-07-09T07:37:07.282Z,40704.00
2018-07-09T07:38:07.354Z,54784.00
2018-07-09T07:39:07.386Z,23872.00
2018-07-09T07:40:07.433Z,56384.00
2018-07-09T07:41:07.517Z,53632.00
2018-07-09T07:42:07.542Z,50688.00
2018-07-09T07:43:07.598Z,34912.00
2018-07-09T07:44:07.652Z,28960.00
2018-07-09T07:45:07.704Z,52928.00
2018-07-09T07:46:07.794Z,65728.00
2018-07-09T07:47:07.813Z,86624.00
2018-07-09T07:48:07.867Z,77920.00
2018-07-09T07:49:07.921Z,54720.00
2018-07-09T07:50:07.988Z,38752.00
2018-07-09T07:51:08.069Z,40736.00
2018-07-09T07:52:08.086Z,53440.00
2018-07-09T07:53:08.136Z,66432.00
2018-07-09T07:54:08.194Z,69952.00
2018-07-09T07:55:08.248Z,70464.00
2018-07-09T07:56:08.328Z,63904.00
2018-07-09T07:57:08.353Z,51456.00
2018-07-09T07:58:08.410Z,45952.00
2018-07-09T07:59:08.485Z,53312.00
2018-07-09T08:00:08.515Z,67392.00
2018-07-09T08:01:08.615Z,71392.00
2018-07-09T08:02:08.657Z,71424.00
2018-07-09T08:03:08.682Z,75040.00
2018-07-09T08:04:08.730Z,94304.00
2018-07-09T08:05:08.792Z,104032.00
2018-07-09T08:06:08.840Z,114848.00
2018-07-09T08:07:08.918Z,118816.00
2018-07-09T08:08:08.949Z,109984.00
2018-07-09T08:09:09.001Z,96096.00
2018-07-09T08:10:09.056Z,88256.00
2018-07-09T08:11:12.222Z,87520.00
2018-07-09T08:13:00.533Z,88928.00
2018-07-09T08:13:27.986Z,88736.00
2018-07-09T08:14:09.271Z,84832.00
2018-07-09T08:15:09.330Z,82336.00
2018-07-09T08:16:09.380Z,79904.00
2018-07-09T08:17:09.462Z,77600.00
2018-07-09T08:18:09.487Z,82240.00
2018-07-09T08:19:09.541Z,92800.00
2018-07-09T08:20:09.597Z,99840.00
2018-07-09T08:21:09.650Z,94112.00
2018-07-09T08:22:09.739Z,94720.00
2018-07-09T08:23:09.759Z,88032.00
2018-07-09T08:24:09.811Z,85760.00
2018-07-09T08:25:09.887Z,85888.00
2018-07-09T08:26:09.920Z,87840.00
2018-07-09T08:27:10.006Z,97024.00
2018-07-09T08:28:10.027Z,104736.00
2018-07-09T08:29:10.083Z,102336.00
2018-07-09T08:30:10.134Z,90752.00
2018-07-09T08:31:10.206Z,79424.00
2018-07-09T08:32:10.273Z,74944.00
2018-07-09T08:33:10.295Z,76512.00
2018-07-09T08:34:10.351Z,84256.00
2018-07-09T08:35:10.405Z,94464.00
2018-07-09T08:36:10.462Z,99008.00
2018-07-09T08:37:10.535Z,94720.00
2018-07-09T08:38:10.567Z,86080.00
2018-07-09T08:39:10.622Z,75008.00
2018-07-09T08:40:10.680Z,68512.00
2018-07-09T08:41:10.733Z,70496.00
2018-07-09T08:42:10.811Z,79168.00
2018-07-09T08:43:10.839Z,90400.00
2018-07-09T08:44:10.893Z,95968.00
2018-07-09T08:45:10.947Z,98016.00
2018-07-09T08:46:11.008Z,96032.00
2018-07-09T08:47:11.081Z,94720.00
2018-07-09T08:48:11.141Z,98912.00
2018-07-09T08:49:11.164Z,109088.00
2018-07-09T08:50:11.220Z,117984.00
2018-07-09T08:51:11.278Z,121184.00
2018-07-09T08:52:11.330Z,120224.00
2018-07-09T08:53:11.406Z,115552.00
2018-07-09T08:54:11.442Z,110496.00
2018-07-09T08:55:11.509Z,104128.00
2018-07-09T08:56:11.548Z,101792.00
2018-07-09T08:57:11.639Z,101472.00
2018-07-09T08:58:11.654Z,97600.00
2018-07-09T08:59:11.712Z,91712.00
2018-07-09T09:00:11.764Z,89920.00
2018-07-09T09:01:11.817Z,96544.00
2018-07-09T09:02:11.907Z,111168.00
2018-07-09T09:03:11.929Z,129856.00
2018-07-09T09:04:11.985Z,135648.00
2018-07-09T09:05:12.040Z,125376.00
2018-07-09T09:06:12.097Z,110496.00
2018-07-09T09:07:12.182Z,101440.00
2018-07-09T09:08:12.204Z,102048.00
2018-07-09T09:09:12.258Z,106592.00
2018-07-09T09:10:12.415Z,95136.00
2018-07-09T09:11:12.372Z,89664.00
2018-07-09T09:12:12.459Z,84256.00
2018-07-09T09:13:12.484Z,88032.00
2018-07-09T09:14:12.536Z,99680.00
2018-07-09T09:15:12.589Z,110496.00
2018-07-09T09:16:12.645Z,112128.00
2018-07-09T09:17:12.725Z,111648.00
2018-07-09T09:18:12.754Z,96320.00
2018-07-09T09:19:12.816Z,88032.00
2018-07-09T09:20:12.871Z,85696.00
2018-07-09T09:21:12.919Z,87872.00
2018-07-09T09:22:13.001Z,92128.00
2018-07-09T09:23:13.053Z,92704.00
2018-07-09T09:24:13.083Z,90688.00
2018-07-09T09:25:13.140Z,87392.00
2018-07-09T09:26:13.195Z,88768.00
2018-07-09T09:27:13.248Z,94816.00
2018-07-09T09:28:13.341Z,106624.00
2018-07-09T09:29:13.358Z,117408.00
2018-07-09T09:30:13.413Z,120480.00
2018-07-09T09:31:13.524Z,110560.00
2018-07-09T09:32:13.527Z,92672.00
2018-07-09T09:33:13.606Z,79840.00
2018-07-09T09:34:13.633Z,76768.00
2018-07-09T09:35:13.686Z,84448.00
2018-07-09T09:36:13.742Z,97504.00
2018-07-09T09:37:13.799Z,113696.00
2018-07-09T09:38:13.880Z,126112.00
2018-07-09T09:39:13.951Z,131456.00
2018-07-09T09:40:13.959Z,129312.00
2018-07-09T09:41:14.018Z,123808.00
2018-07-09T09:42:14.068Z,112512.00
2018-07-09T09:43:14.189Z,100160.00
2018-07-09T09:44:14.200Z,87936.00
2018-07-09T09:45:14.235Z,76800.00
2018-07-09T09:46:14.288Z,69504.00
2018-07-09T09:47:14.349Z,69952.00
2018-07-09T09:48:14.400Z,73536.00
2018-07-09T09:49:14.494Z,82336.00
2018-07-09T09:50:14.529Z,94400.00
2018-07-09T09:51:14.571Z,104896.00
2018-07-09T09:52:14.615Z,114048.00
2018-07-09T09:53:14.675Z,115296.00
2018-07-09T09:54:14.724Z,112064.00
2018-07-09T09:55:14.814Z,107360.00
2018-07-09T09:56:14.834Z,108672.00
2018-07-09T09:57:14.888Z,114688.00
2018-07-09T09:58:14.944Z,114624.00
2018-07-09T09:59:14.998Z,121664.00
2018-07-09T10:00:15.090Z,138240.00
2018-07-09T10:01:15.109Z,157856.00
2018-07-09T10:02:15.165Z,163360.00
2018-07-09T10:03:15.221Z,155008.00
2018-07-09T10:04:15.277Z,140576.00
2018-07-09T10:05:15.355Z,123968.00
2018-07-09T10:06:15.407Z,112480.00
2018-07-09T10:07:15.442Z,114528.00
2018-07-09T10:08:15.499Z,119744.00
2018-07-09T10:09:15.549Z,119936.00
2018-07-09T10:10:15.605Z,105568.00
2018-07-09T10:11:15.710Z,121664.00
2018-07-09T10:12:15.716Z,121376.00
2018-07-09T10:13:15.770Z,111968.00
2018-07-09T10:14:15.827Z,99904.00
2018-07-09T10:15:15.883Z,83872.00
2018-07-09T10:16:15.960Z,76192.00
2018-07-09T10:17:16.016Z,78528.00
2018-07-09T10:18:16.055Z,84576.00
2018-07-09T10:19:16.107Z,94464.00
2018-07-09T10:20:16.165Z,106272.00
2018-07-09T10:21:16.239Z,134368.00
2018-07-09T10:22:16.295Z,143328.00
2018-07-09T10:23:16.418Z,142464.00
2018-07-09T10:24:16.390Z,136032.00
2018-07-09T10:25:16.439Z,119840.00
2018-07-09T10:26:16.497Z,115712.00
2018-07-09T10:27:16.578Z,104384.00
2018-07-09T10:28:16.609Z,101728.00
2018-07-09T10:29:16.664Z,75200.00
2018-07-09T10:30:16.739Z,84064.00
2018-07-09T10:31:16.784Z,75392.00
2018-07-09T10:32:16.875Z,89536.00
2018-07-09T10:33:16.893Z,96800.00
2018-07-09T10:34:16.951Z,93600.00
2018-07-09T10:35:17.011Z,103264.00
2018-07-09T10:36:17.063Z,117856.00
2018-07-09T10:37:17.158Z,119968.00
2018-07-09T10:38:17.177Z,116224.00
2018-07-09T10:39:17.788Z,114496.00
2018-07-09T10:40:17.293Z,108000.00
2018-07-09T10:41:17.351Z,96960.00
2018-07-09T10:42:17.433Z,109440.00
2018-07-09T10:43:17.494Z,120192.00
2018-07-09T10:44:17.523Z,86720.00
2018-07-09T10:45:17.584Z,153312.00
2018-07-09T10:46:17.641Z,159488.00
2018-07-09T10:47:17.701Z,161600.00
2018-07-09T10:48:17.782Z,160960.00
2018-07-09T10:49:17.841Z,153856.00
2018-07-09T10:50:17.874Z,146560.00
2018-07-09T10:51:17.934Z,129984.00
2018-07-09T10:52:17.996Z,113472.00
2018-07-09T10:53:18.076Z,97856.00
2018-07-09T10:54:18.134Z,90752.00
2018-07-09T10:55:18.216Z,60096.00
2018-07-09T10:56:18.231Z,93600.00
2018-07-09T10:57:18.289Z,101088.00
2018-07-09T10:58:18.350Z,108384.00
2018-07-09T10:59:18.441Z,107776.00
2018-07-09T11:00:18.471Z,108672.00
2018-07-09T11:01:18.530Z,110656.00
2018-07-09T11:02:18.592Z,113696.00
2018-07-09T11:03:18.651Z,110976.00
2018-07-09T11:04:18.751Z,102304.00
2018-07-09T11:05:18.769Z,106816.00
2018-07-09T11:06:18.828Z,114848.00
2018-07-09T11:07:18.890Z,126336.00
2018-07-09T11:08:18.945Z,140384.00
2018-07-09T11:09:19.038Z,143328.00
2018-07-09T11:10:19.066Z,146400.00
2018-07-09T11:11:19.124Z,148224.00
2018-07-09T11:12:19.183Z,146400.00
2018-07-09T11:13:19.239Z,141696.00
2018-07-09T11:14:19.328Z,121568.00
2018-07-09T11:15:19.385Z,57568.00
2018-07-09T11:16:19.476Z,42208.00
2018-07-09T11:17:19.473Z,76224.00
2018-07-09T11:18:19.534Z,94208.00
2018-07-09T11:19:19.591Z,92352.00
2018-07-09T11:20:19.685Z,95424.00
2018-07-09T11:21:19.707Z,100000.00
2018-07-09T11:22:19.764Z,109152.00
2018-07-09T11:23:19.824Z,122080.00
2018-07-09T11:24:19.882Z,135680.00
2018-07-09T11:25:19.968Z,143584.00
2018-07-09T11:26:19.997Z,143680.00
2018-07-09T11:27:20.057Z,135424.00
2018-07-09T11:28:20.112Z,126080.00
2018-07-09T11:29:20.209Z,116000.00
2018-07-09T11:30:20.254Z,111264.00
2018-07-09T11:31:20.312Z,110272.00
2018-07-09T11:32:20.342Z,115360.00
2018-07-09T11:33:20.402Z,120704.00
2018-07-09T11:34:20.461Z,125632.00
2018-07-09T11:35:20.517Z,128064.00
2018-07-09T11:36:20.657Z,130880.00
2018-07-09T11:37:20.633Z,129696.00
2018-07-09T11:38:20.711Z,125280.00
2018-07-09T11:39:20.751Z,122208.00
2018-07-09T11:40:20.810Z,117536.00
2018-07-09T11:41:20.896Z,116832.00
2018-07-09T11:42:20.926Z,121312.00
2018-07-09T11:43:20.987Z,126400.00
2018-07-09T11:44:21.045Z,131808.00
2018-07-09T11:45:21.104Z,135008.00
2018-07-09T11:46:21.189Z,132960.00
2018-07-09T11:47:21.221Z,129088.00
2018-07-09T11:48:21.283Z,118944.00
2018-07-09T11:49:21.341Z,107328.00
2018-07-09T11:50:21.397Z,102048.00
2018-07-09T11:51:21.495Z,97120.00
2018-07-09T11:52:21.515Z,96064.00
2018-07-09T11:53:21.576Z,95008.00
2018-07-09T11:54:21.636Z,91968.00
2018-07-09T11:55:21.696Z,90336.00
2018-07-09T11:56:21.774Z,92672.00
2018-07-09T11:57:21.812Z,96224.00
2018-07-09T11:58:21.892Z,104384.00
2018-07-09T11:59:21.933Z,115072.00
2018-07-09T12:00:21.989Z,131776.00
2018-07-09T12:01:22.051Z,145312.00
2018-07-09T12:02:22.109Z,152192.00
2018-07-09T12:03:22.191Z,154464.00
2018-07-09T12:04:22.259Z,152480.00
2018-07-09T12:05:22.291Z,147456.00
2018-07-09T12:06:22.346Z,142240.00
2018-07-09T12:07:22.415Z,134880.00
2018-07-09T12:08:22.467Z,133344.00
2018-07-09T12:09:22.564Z,132064.00
2018-07-09T12:10:22.588Z,133536.00
2018-07-09T12:11:22.702Z,132704.00
2018-07-09T12:12:22.709Z,134592.00